Time;durP1;ratioP1;P1;durP2;ratioP2;P2;SDS_P1;SDS_P2;PMS_P1;PMS_P2;Temp;Humidity;BMP_temperature;BMP_pressure;BME280_temperature;BME280_humidity;BME280_pressure;Samples;Min_cycle;Max_cycle;Signal;HPM_P1;HPM_P2
2022/08/12 00:44:59;;;;;;;11.83;8.93;;;19.70;99.90;;;;;;5153620;27;20539;-72
2022/08/12 00:47:24;;;;;;;12.23;10.07;;;19.70;99.90;;;;;;5135449;27;20039;-72
2022/08/12 00:49:51;;;;;;;13.77;9.40;;;19.70;99.90;;;;;;5153837;27;20092;-72
2022/08/12 00:52:18;;;;;;;10.57;9.00;;;19.70;99.90;;;;;;5154115;27;20049;-72
2022/08/12 00:54:50;;;;;;;11.07;9.13;;;19.70;99.90;;;;;;5153794;27;20042;-72
2022/08/12 00:57:25;;;;;;;10.97;9.03;;;19.70;99.90;;;;;;5135757;27;20055;-72
2022/08/12 01:00:04;;;;;;;12.90;8.43;;;19.60;99.90;;;;;;5158246;27;20074;-72
2022/08/12 01:02:33;;;;;;;10.03;8.57;;;19.60;99.90;;;;;;5158156;27;20482;-72
2022/08/12 01:13:25;;;;;;;10.37;8.13;;;19.60;99.90;;;;;;5157971;27;20478;-73
2022/08/12 01:15:54;;;;;;;9.50;6.97;;;19.60;99.90;;;;;;5139432;27;20043;-72
2022/08/12 01:18:22;;;;;;;10.73;7.20;;;19.60;99.90;;;;;;5158042;27;20046;-71
2022/08/12 01:20:51;;;;;;;8.60;7.23;;;19.50;99.90;;;;;;5139471;27;20055;-72
2022/08/12 01:23:44;;;;;;;11.73;7.70;;;19.50;99.90;;;;;;5139525;27;20051;-72
2022/08/12 01:26:16;;;;;;;8.80;7.73;;;19.50;99.90;;;;;;5157609;27;20401;-72
2022/08/12 01:28:45;;;;;;;9.53;7.83;;;19.50;99.90;;;;;;5157978;27;20078;-74
2022/08/12 01:31:13;;;;;;;9.00;7.20;;;19.40;99.90;;;;;;5158003;27;20046;-72
2022/08/12 01:33:48;;;;;;;8.80;7.90;;;19.40;99.90;;;;;;5157757;27;20129;-72
2022/08/12 01:36:16;;;;;;;;;;;19.40;99.90;;;;;;5158045;27;20466;-72
2022/08/12 01:38:46;;;;;;;9.27;7.13;;;19.30;99.90;;;;;;5157703;27;19919;-72
2022/08/12 01:41:15;;;;;;;8.97;7.57;;;19.30;99.90;;;;;;5157725;27;20058;-72
2022/08/12 01:43:43;;;;;;;9.73;7.77;;;19.30;99.90;;;;;;5157662;27;20057;-72
2022/08/12 01:46:21;;;;;;;10.33;7.67;;;19.30;99.90;;;;;;5138748;27;20035;-72
2022/08/12 01:49:24;;;;;;;10.17;7.10;;;19.30;99.90;;;;;;5157346;27;20063;-72
2022/08/12 01:52:00;;;;;;;10.37;6.97;;;19.30;99.90;;;;;;5157124;27;20099;-72
2022/08/12 01:54:28;;;;;;;9.83;7.13;;;19.20;99.90;;;;;;5157676;27;20099;-72
2022/08/12 01:57:11;;;;;;;10.17;6.33;;;19.20;99.90;;;;;;5138486;27;20042;-72
2022/08/12 01:59:59;;;;;;;9.07;7.13;;;19.20;99.90;;;;;;5157330;27;20079;-72
2022/08/12 02:02:35;;;;;;;10.57;6.70;;;19.20;99.90;;;;;;5157489;27;20129;-71
2022/08/12 02:11:24;;;;;;;8.90;6.97;;;19.10;99.90;;;;;;5156718;27;20046;-72
2022/08/12 02:14:23;;;;;;;13.63;7.50;;;19.10;99.90;;;;;;5156881;27;20519;-72
2022/08/12 02:16:55;;;;;;;14.03;7.20;;;19.00;99.90;;;;;;5156705;27;20038;-72
2022/08/12 02:19:39;;;;;;;13.63;6.83;;;19.00;99.90;;;;;;5156847;27;20057;-72
2022/08/12 02:22:19;;;;;;;10.80;7.40;;;19.00;99.90;;;;;;5156389;27;20106;-72
2022/08/12 02:24:47;;;;;;;8.50;6.70;;;19.00;99.90;;;;;;5156633;27;20059;-71
2022/08/12 02:27:16;;;;;;;9.47;6.87;;;19.00;99.90;;;;;;5156543;27;20045;-72
2022/08/12 02:29:41;;;;;;;11.17;6.67;;;19.00;99.90;;;;;;5156373;27;20501;-71
2022/08/12 02:32:08;;;;;;;11.67;7.83;;;19.00;99.90;;;;;;5156410;27;20039;-72
2022/08/12 02:34:34;;;;;;;8.73;7.40;;;19.00;99.90;;;;;;5156637;27;20042;-72
2022/08/12 02:37:01;;;;;;;9.37;8.33;;;18.90;99.90;;;;;;5156192;27;20043;-72
2022/08/12 02:39:29;;;;;;;12.47;7.70;;;18.90;99.90;;;;;;5156576;27;20045;-72
2022/08/12 02:41:59;;;;;;;12.30;8.10;;;18.90;99.90;;;;;;5156106;27;20125;-72
2022/08/12 02:44:29;;;;;;;12.23;7.97;;;18.80;99.90;;;;;;5156430;27;20042;-72
2022/08/12 02:47:00;;;;;;;9.47;7.07;;;18.80;99.90;;;;;;5156086;27;20066;-72
2022/08/12 02:49:31;;;;;;;10.67;7.70;;;18.80;99.90;;;;;;5156625;27;20047;-72
2022/08/12 02:51:59;;;;;;;9.80;7.93;;;18.80;99.90;;;;;;5156034;27;20179;-72
2022/08/12 02:54:25;;;;;;;10.73;7.60;;;18.80;99.90;;;;;;5156307;27;20050;-72
2022/08/12 02:56:53;;;;;;;10.37;7.77;;;18.70;99.90;;;;;;5137743;27;20065;-70
2022/08/12 02:59:22;;;;;;;9.83;7.10;;;18.70;99.90;;;;;;5156143;27;20554;-71
2022/08/12 03:01:58;;;;;;;12.10;7.97;;;18.70;99.90;;;;;;5156114;27;20046;-71
2022/08/12 03:04:30;;;;;;;9.60;7.63;;;18.70;99.90;;;;;;5156214;27;20122;-72
2022/08/12 03:07:15;;;;;;;10.40;7.93;;;18.60;99.90;;;;;;5155918;27;20046;-72
2022/08/12 03:10:05;;;;;;;10.80;7.25;;;18.70;99.90;;;;;;5156163;27;20042;-71
2022/08/12 03:12:34;;;;;;;10.90;7.80;;;18.70;99.90;;;;;;5155917;27;20066;-71
2022/08/12 03:15:05;;;;;;;9.83;7.43;;;18.70;99.90;;;;;;5155516;27;20042;-72
2022/08/12 03:18:08;;;;;;;11.10;7.73;;;18.70;99.90;;;;;;5155951;27;20427;-71
2022/08/12 03:20:39;;;;;;;9.20;6.93;;;18.70;99.90;;;;;;5151122;27;20059;-71
2022/08/12 03:23:10;;;;;;;11.43;7.60;;;18.70;99.90;;;;;;5155082;27;20061;-72
2022/08/12 03:25:39;;;;;;;10.00;7.90;;;18.70;99.90;;;;;;5155662;27;20043;-72
2022/08/12 03:28:09;;;;;;;14.10;7.53;;;18.60;99.90;;;;;;5155049;27;20486;-72
2022/08/12 03:30:36;;;;;;;10.20;7.60;;;18.60;99.90;;;;;;5155520;27;20240;-72
2022/08/12 03:33:04;;;;;;;16.90;8.23;;;18.60;99.90;;;;;;5155228;27;20379;-72
2022/08/12 03:35:34;;;;;;;12.47;8.30;;;18.60;99.90;;;;;;5136977;27;20047;-72
2022/08/12 03:38:03;;;;;;;12.17;8.43;;;18.50;99.90;;;;;;5155063;27;20138;-72
2022/08/12 04:00:36;;;;;;;12.82;8.25;;;18.40;99.90;;;;;;5154882;27;20482;-72
2022/08/12 04:03:50;;;;;;;12.70;8.77;;;18.40;99.90;;;;;;5154562;27;20071;-72
2022/08/12 04:05:49;;;;;;;10.00;9.00;;;18.40;99.90;;;;;;5135998;27;20055;-72
2022/08/12 04:08:17;;;;;;;10.73;8.43;;;18.40;99.90;;;;;;5154522;27;20044;-72
2022/08/12 04:13:27;;;;;;;11.00;8.25;;;18.30;99.90;;;;;;5154719;27;20058;-72
2022/08/12 04:15:53;;;;;;;13.03;9.07;;;18.30;99.90;;;;;;5154618;27;20091;-72
2022/08/12 04:18:19;;;;;;;15.40;8.93;;;18.30;99.90;;;;;;5154350;27;20042;-72
2022/08/12 04:20:48;;;;;;;11.93;8.87;;;18.20;99.90;;;;;;5154562;27;20051;-72
2022/08/12 04:23:15;;;;;;;13.53;8.87;;;18.20;99.90;;;;;;5153896;27;20059;-72
2022/08/12 04:25:42;;;;;;;15.10;9.20;;;18.20;99.90;;;;;;5154514;27;20043;-72
2022/08/12 04:28:09;;;;;;;12.47;8.53;;;18.20;99.90;;;;;;5118690;27;20065;-72
2022/08/12 04:30:35;;;;;;;10.70;8.83;;;18.20;99.90;;;;;;5154426;27;20081;-71
2022/08/12 04:33:03;;;;;;;9.97;8.97;;;18.20;99.90;;;;;;5153228;27;20516;-73
2022/08/12 04:35:30;;;;;;;13.57;8.67;;;18.20;99.90;;;;;;5135830;27;20046;-72
2022/08/12 04:37:56;;;;;;;10.13;8.77;;;18.20;99.90;;;;;;5154333;27;20045;-71
2022/08/12 04:40:24;;;;;;;10.67;8.43;;;18.20;99.90;;;;;;5154021;27;20105;-72
2022/08/12 04:42:50;;;;;;;11.97;8.60;;;18.20;99.90;;;;;;5154301;27;20039;-72
2022/08/12 04:45:19;;;;;;;14.63;8.67;;;18.20;99.90;;;;;;5154016;27;20117;-72
2022/08/12 04:47:46;;;;;;;14.67;8.77;;;18.20;99.90;;;;;;5154169;27;20053;-72
2022/08/12 04:50:16;;;;;;;11.27;8.40;;;18.20;99.90;;;;;;5153878;27;20050;-72
2022/08/12 04:52:42;;;;;;;9.27;7.30;;;18.20;99.90;;;;;;5135899;27;20087;-72
2022/08/12 04:55:09;;;;;;;10.37;7.90;;;18.20;99.90;;;;;;5153894;27;20208;-72
2022/08/12 04:57:36;;;;;;;12.93;8.23;;;18.20;99.90;;;;;;5153680;27;20482;-72
2022/08/12 05:00:11;;;;;;;10.37;7.73;;;18.30;99.90;;;;;;5154071;27;20080;-72
2022/08/12 05:02:36;;;;;;;10.77;7.45;;;18.30;99.90;;;;;;5153776;27;20498;-71
2022/08/12 05:05:03;;;;;;;11.33;7.73;;;18.30;99.90;;;;;;5154036;27;20129;-71
2022/08/12 05:07:29;;;;;;;11.17;7.50;;;18.30;99.90;;;;;;5153753;27;20050;-71
2022/08/12 05:09:55;;;;;;;11.53;7.60;;;18.40;99.90;;;;;;5135446;27;20374;-71
2022/08/12 05:12:22;;;;;;;12.50;7.80;;;18.40;99.90;;;;;;5153678;27;20042;-72
2022/08/12 05:14:49;;;;;;;8.57;7.13;;;18.40;99.90;;;;;;5153917;27;20047;-72
2022/08/12 05:17:15;;;;;;;10.03;7.53;;;18.40;99.90;;;;;;5153542;27;20050;-72
2022/08/12 05:19:41;;;;;;;13.50;7.60;;;18.40;99.90;;;;;;5153866;27;20047;-71
2022/08/12 05:22:08;;;;;;;9.30;7.03;;;18.50;99.90;;;;;;5153281;27;20516;-74
2022/08/12 05:24:33;;;;;;;12.47;7.20;;;18.60;99.90;;;;;;5154043;27;20146;-71
2022/08/12 05:26:59;;;;;;;12.63;7.77;;;18.60;99.90;;;;;;5153480;27;20134;-71
2022/08/12 05:29:28;;;;;;;9.43;6.63;;;18.60;99.90;;;;;;5153881;27;20099;-71
2022/08/12 05:31:55;;;;;;;11.43;6.60;;;18.70;99.90;;;;;;5153768;27;20601;-71
2022/08/12 05:34:21;;;;;;;12.07;7.07;;;18.70;99.90;;;;;;5153509;27;20099;-72
2022/08/12 05:36:47;;;;;;;10.60;6.60;;;18.80;99.90;;;;;;5153606;27;20042;-72
2022/08/12 05:39:12;;;;;;;9.07;7.20;;;18.90;99.90;;;;;;5153805;27;20042;-72
2022/08/12 05:41:38;;;;;;;11.53;6.70;;;19.00;99.90;;;;;;5153660;27;20506;-71
2022/08/12 05:44:06;;;;;;;9.93;6.80;;;19.10;99.90;;;;;;5154994;27;20090;-71
2022/08/12 05:46:33;;;;;;;10.10;6.43;;;19.20;99.90;;;;;;5157427;27;20113;-72
2022/08/12 05:48:59;;;;;;;9.03;5.83;;;19.30;99.90;;;;;;5157617;27;20054;-72
2022/08/12 05:51:27;;;;;;;9.20;6.00;;;19.60;99.90;;;;;;5157681;27;20039;-72
2022/08/12 05:53:54;;;;;;;10.03;5.50;;;19.80;99.90;;;;;;5139034;27;20051;-72
2022/08/12 05:56:22;;;;;;;7.20;5.40;;;20.30;99.90;;;;;;5157077;27;20089;-72
2022/08/12 05:58:50;;;;;;;10.83;5.53;;;21.50;99.90;;;;;;5139098;27;20043;-72
2022/08/12 06:01:16;;;;;;;8.40;5.20;;;22.80;99.90;;;;;;5138471;27;20414;-72
2022/08/12 06:03:42;;;;;;;8.67;5.30;;;24.00;99.90;;;;;;5157417;27;20042;-72
2022/08/12 06:06:09;;;;;;;8.17;4.67;;;25.00;99.90;;;;;;5121489;27;20066;-72
2022/08/12 06:08:35;;;;;;;10.20;4.90;;;25.70;99.90;;;;;;5156959;27;20046;-72
2022/08/12 06:11:04;;;;;;;14.20;4.23;;;26.60;99.90;;;;;;5157204;27;20038;-72
2022/08/12 06:13:37;;;;;;;8.77;4.90;;;27.40;95.30;;;;;;5156786;27;20108;-72
2022/08/12 06:16:05;;;;;;;6.97;4.10;;;;;;;;;;5157259;27;20042;-72
2022/08/12 06:18:31;;;;;;;8.50;4.50;;;28.80;65.70;;;;;;5156654;27;20046;-72
2022/08/12 06:20:59;;;;;;;8.30;4.63;;;28.80;72.20;;;;;;5138467;27;20035;-72
2022/08/12 06:23:27;;;;;;;13.57;4.17;;;29.20;70.30;;;;;;5156365;27;20090;-73
2022/08/12 06:25:54;;;;;;;8.57;3.53;;;29.60;65.90;;;;;;5156876;27;20114;-72
2022/08/12 06:28:21;;;;;;;10.07;3.90;;;29.80;63.50;;;;;;5156640;27;20047;-72
2022/08/12 06:30:48;;;;;;;10.60;4.37;;;30.20;62.40;;;;;;5157028;27;20046;-72
2022/08/12 06:33:14;;;;;;;7.63;4.27;;;30.20;59.40;;;;;;5138336;27;20450;-72
2022/08/12 06:35:43;;;;;;;7.60;3.50;;;30.30;58.30;;;;;;5137949;27;20035;-72
2022/08/12 06:38:17;;;;;;;7.50;3.80;;;30.20;58.10;;;;;;5156629;27;20481;-72
2022/08/12 06:43:32;;;;;;;7.30;3.88;;;30.80;56.40;;;;;;5156236;27;20051;-72
2022/08/12 06:45:58;;;;;;;10.07;3.92;;;31.20;54.20;;;;;;5156464;27;20038;-72
2022/08/12 06:48:26;;;;;;;6.15;3.53;;;31.30;54.10;;;;;;5138043;27;20383;-73
2022/08/12 06:50:53;;;;;;;5.63;3.60;;;31.50;53.00;;;;;;5156488;27;20057;-72
2022/08/12 06:53:19;;;;;;;5.72;3.85;;;31.90;51.80;;;;;;5126513;27;20483;-72
2022/08/12 06:55:45;;;;;;;7.75;3.72;;;32.20;51.00;;;;;;5116392;27;20043;-74
2022/08/12 06:58:13;;;;;;;5.18;3.63;;;32.70;50.00;;;;;;5117456;27;20047;-73
2022/08/12 07:00:42;;;;;;;7.68;3.88;;;33.10;49.20;;;;;;5134841;27;20431;-73
2022/08/12 07:03:09;;;;;;;6.38;3.78;;;33.20;48.20;;;;;;5135288;27;20050;-73
2022/08/12 07:05:35;;;;;;;7.45;3.92;;;33.60;47.80;;;;;;5135051;27;20039;-73
2022/08/12 07:08:00;;;;;;;10.77;4.03;;;34.00;46.80;;;;;;5135522;27;20118;-72
2022/08/12 07:10:26;;;;;;;7.75;3.17;;;34.10;46.30;;;;;;5134866;27;20177;-72
2022/08/12 07:12:55;;;;;;;5.72;3.15;;;34.30;45.60;;;;;;5117040;27;20054;-72
2022/08/12 07:15:24;;;;;;;8.23;3.97;;;34.70;44.70;;;;;;5135019;27;20035;-73
2022/08/12 07:18:15;;;;;;;5.70;3.65;;;34.70;43.40;;;;;;5135126;27;20121;-72
2022/08/12 07:20:46;;;;;;;6.07;3.30;;;35.00;43.10;;;;;;5134852;27;20050;-73
2022/08/12 07:23:13;;;;;;;6.55;3.65;;;35.00;43.10;;;;;;5134768;27;20059;-73
2022/08/12 07:25:39;;;;;;;5.63;3.67;;;35.50;42.30;;;;;;5116346;27;20079;-72
2022/08/12 07:28:17;;;;;;;6.78;3.47;;;35.50;42.00;;;;;;5134980;27;20047;-72
2022/08/12 07:30:47;;;;;;;10.05;3.00;;;35.80;40.70;;;;;;5134672;27;20112;-72
2022/08/12 07:33:15;;;;;;;7.97;2.90;;;35.70;39.50;;;;;;5134792;27;20047;-73
2022/08/12 07:35:46;;;;;;;5.00;3.22;;;35.80;41.20;;;;;;5134267;27;20043;-72
2022/08/12 07:38:23;;;;;;;5.75;3.42;;;36.30;40.00;;;;;;5134998;27;20116;-72
2022/08/12 07:40:51;;;;;;;8.20;3.92;;;35.80;39.10;;;;;;5134847;27;20130;-72
2022/08/12 07:43:17;;;;;;;10.80;3.35;;;35.60;40.10;;;;;;5134540;27;20043;-72
2022/08/12 07:45:44;;;;;;;6.65;2.90;;;35.30;40.30;;;;;;5133942;27;20062;-72
2022/08/12 07:48:10;;;;;;;9.95;3.45;;;35.10;40.50;;;;;;5134407;27;20085;-72
2022/08/12 07:50:36;;;;;;;5.45;2.78;;;34.70;40.60;;;;;;5134185;27;20047;-72
2022/08/12 07:53:02;;;;;;;4.30;3.03;;;35.30;40.70;;;;;;5116018;27;20098;-72
2022/08/12 07:55:28;;;;;;;5.18;3.38;;;35.20;39.60;;;;;;5134069;27;20047;-73
2022/08/12 07:57:58;;;;;;;7.53;2.88;;;35.40;40.10;;;;;;5134284;27;20051;-72
2022/08/12 08:00:26;;;;;;;7.18;2.67;;;35.50;39.70;;;;;;5134045;27;20183;-76
2022/08/12 08:02:53;;;;;;;6.82;3.50;;;35.70;40.20;;;;;;5134275;27;20054;-73
2022/08/12 08:05:19;;;;;;;6.82;2.80;;;;;;;;;;5134208;27;20586;-73
2022/08/12 08:07:45;;;;;;;7.72;3.08;;;36.20;38.90;;;;;;5115457;27;20390;-71
2022/08/12 08:10:12;;;;;;;4.88;2.90;;;36.30;39.10;;;;;;5134108;27;20465;-72
2022/08/12 08:12:54;;;;;;;7.25;2.47;;;36.40;38.50;;;;;;5133734;27;20130;-71
2022/08/12 08:15:26;;;;;;;8.77;2.67;;;36.10;45.80;;;;;;5134122;27;20043;-72
2022/08/12 08:17:58;;;;;;;8.25;2.95;;;35.00;39.80;;;;;;5133857;27;20440;-72
2022/08/12 08:20:27;;;;;;;7.75;3.05;;;34.10;40.80;;;;;;5134400;27;20092;-72
2022/08/12 08:22:57;;;;;;;8.30;2.80;;;33.20;41.80;;;;;;5134066;27;20047;-72
2022/08/12 08:25:30;;;;;;;9.65;2.75;;;;;;;;;;5134461;27;20431;-71
2022/08/12 08:27:57;;;;;;;5.82;2.83;;;;;;;;;;5134535;27;20078;-72
2022/08/12 08:30:23;;;;;;;5.07;2.60;;;31.00;81.30;;;;;;5134224;27;20047;-68
2022/08/12 08:32:49;;;;;;;9.82;2.88;;;30.60;44.30;;;;;;5115673;27;20390;-75
2022/08/12 08:35:15;;;;;;;13.45;2.80;;;30.30;45.30;;;;;;5134184;27;20148;-69
2022/08/12 08:37:45;;;;;;;9.30;2.85;;;30.00;46.30;;;;;;5133899;27;20039;-71
2022/08/12 08:43:03;;;;;;;10.32;2.83;;;29.90;47.40;;;;;;5094620;27;20057;-70
2022/08/12 08:45:30;;;;;;;6.95;2.42;;;29.80;47.50;;;;;;5115783;27;20047;-72
2022/08/12 08:47:55;;;;;;;7.70;2.80;;;29.80;47.90;;;;;;5134113;27;20039;-70
2022/08/12 08:50:22;;;;;;;7.82;2.72;;;29.70;48.10;;;;;;5098965;28;20182;-70
2022/08/12 08:52:47;;;;;;;6.45;2.65;;;29.60;48.10;;;;;;5133640;28;20043;-71
2022/08/12 08:55:15;;;;;;;7.95;2.70;;;29.70;48.30;;;;;;5133822;28;20051;-76
2022/08/12 08:57:49;;;;;;;5.38;2.35;;;29.60;48.00;;;;;;5133594;28;20047;-76
2022/08/12 09:00:17;;;;;;;7.47;2.38;;;29.60;48.40;;;;;;5134154;28;20136;-77
2022/08/12 09:02:45;;;;;;;5.05;2.90;;;29.60;48.00;;;;;;5133232;28;20429;-78
2022/08/12 09:05:10;;;;;;;6.13;2.50;;;29.60;47.00;;;;;;5135015;28;20379;-74
2022/08/12 09:07:47;;;;;;;4.85;2.20;;;29.50;46.90;;;;;;5133013;28;20050;-77
2022/08/12 09:10:15;;;;;;;6.28;2.28;;;29.40;47.00;;;;;;5133462;28;20054;-81
2022/08/12 09:15:28;;;;;;;7.30;2.20;;;29.00;46.70;;;;;;5133179;28;20059;-77
2022/08/12 09:17:54;;;;;;;7.30;2.47;;;28.90;47.00;;;;;;5133012;27;20130;-78
2022/08/12 09:20:22;;;;;;;7.07;2.50;;;28.80;47.00;;;;;;5136813;27;20043;-72
2022/08/12 09:22:48;;;;;;;7.18;2.30;;;28.80;47.00;;;;;;5118676;27;20122;-79
2022/08/12 09:25:15;;;;;;;5.60;2.30;;;28.80;47.00;;;;;;5137208;27;20099;-80
2022/08/12 09:27:41;;;;;;;15.15;2.33;;;28.90;46.90;;;;;;5136743;27;20439;-79
2022/08/12 09:30:14;;;;;;;5.55;2.25;;;28.90;47.00;;;;;;5137236;27;20055;-71
2022/08/12 09:32:50;;;;;;;5.00;2.25;;;28.90;46.40;;;;;;5136914;27;20047;-80
2022/08/12 09:35:30;;;;;;;4.90;2.55;;;28.90;46.40;;;;;;5137136;27;20043;-75
2022/08/12 09:37:56;;;;;;;6.15;2.13;;;28.90;45.60;;;;;;5136629;27;20092;-76
2022/08/12 09:40:23;;;;;;;5.90;2.25;;;28.90;45.80;;;;;;5137016;27;20081;-70
2022/08/12 09:45:34;;;;;;;7.82;2.53;;;28.90;46.30;;;;;;5136946;27;20137;-75
2022/08/12 09:48:03;;;;;;;6.60;2.03;;;28.80;45.90;;;;;;5136575;27;20482;-75
2022/08/12 09:50:30;;;;;;;9.73;2.25;;;28.80;46.30;;;;;;5118577;27;20502;-76
2022/08/12 09:53:09;;;;;;;8.15;2.78;;;28.80;47.00;;;;;;5118370;27;20949;-76
2022/08/12 09:55:36;;;;;;;8.73;2.20;;;28.90;47.40;;;;;;5146829;27;20041;-71
2022/08/12 09:58:03;;;;;;;6.88;2.45;;;29.00;46.80;;;;;;5149617;27;20077;-71
2022/08/12 10:00:33;;;;;;;8.55;2.50;;;28.90;45.90;;;;;;5138819;27;20074;-72
2022/08/12 10:03:09;;;;;;;6.45;2.63;;;29.00;45.60;;;;;;5157120;27;20075;-71
2022/08/12 10:05:40;;;;;;;6.93;2.60;;;29.10;44.80;;;;;;5157338;27;20050;-71
2022/08/12 10:08:09;;;;;;;8.50;2.40;;;29.10;44.10;;;;;;5157244;27;20165;-71
2022/08/12 10:13:41;;;;;;;7.07;2.50;;;29.00;45.30;;;;;;5156506;27;20134;-76
2022/08/12 10:16:17;;;;;;;7.22;2.20;;;29.10;44.80;;;;;;5157160;27;20361;-72
2022/08/12 10:18:52;;;;;;;8.77;2.30;;;29.20;44.60;;;;;;5156651;27;20502;-72
2022/08/12 10:21:20;;;;;;;7.93;2.60;;;29.20;44.70;;;;;;5157135;27;20390;-71
2022/08/12 10:23:48;;;;;;;7.68;2.40;;;29.30;44.90;;;;;;5156342;27;20062;-72
2022/08/12 10:31:45;;;;;;;4.60;2.28;;;29.20;44.50;;;;;;5155240;27;20471;-71
2022/08/12 10:34:12;;;;;;;6.13;2.50;;;29.10;44.80;;;;;;5156642;27;20043;-71
2022/08/12 10:36:40;;;;;;;6.55;2.53;;;29.10;45.20;;;;;;5156483;27;20074;-72
2022/08/12 10:39:09;;;;;;;4.73;2.20;;;29.00;45.10;;;;;;5156404;27;20043;-72
2022/08/12 10:44:21;;;;;;;7.88;2.40;;;29.10;45.30;;;;;;5156687;27;20093;-71
2022/08/12 10:46:49;;;;;;;7.43;2.40;;;29.20;45.50;;;;;;5156223;27;20049;-73
2022/08/12 10:49:15;;;;;;;6.20;2.57;;;29.40;43.70;;;;;;5156350;27;20054;-72
2022/08/12 10:51:41;;;;;;;5.88;2.42;;;29.30;44.00;;;;;;5156233;27;20104;-72
2022/08/12 10:54:08;;;;;;;6.10;2.97;;;29.30;43.80;;;;;;5155977;27;20039;-71
2022/08/12 10:56:35;;;;;;;13.43;2.47;;;29.30;44.00;;;;;;5156125;27;20104;-71
2022/08/12 10:59:03;;;;;;;7.63;2.70;;;29.40;43.70;;;;;;5155852;27;20474;-72
2022/08/12 11:01:30;;;;;;;6.23;2.90;;;29.40;43.20;;;;;;5151088;27;20054;-70
2022/08/12 11:03:55;;;;;;;9.52;2.72;;;29.30;43.50;;;;;;5151692;27;20074;-73
2022/08/12 11:06:22;;;;;;;8.43;2.55;;;29.30;42.80;;;;;;5155865;27;20078;-75
2022/08/12 11:08:48;;;;;;;7.57;2.67;;;29.20;43.20;;;;;;5133971;27;20046;-69
2022/08/12 11:11:19;;;;;;;6.70;2.50;;;29.30;43.20;;;;;;5135093;27;20418;-72
2022/08/12 11:13:45;;;;;;;9.57;2.87;;;29.30;42.80;;;;;;5147833;27;20050;-73
2022/08/12 11:16:12;;;;;;;11.27;2.30;;;29.40;43.00;;;;;;5147608;27;20049;-69
2022/08/12 11:18:39;;;;;;;5.83;2.47;;;29.40;42.70;;;;;;5144402;27;20740;-73
2022/08/12 11:21:05;;;;;;;10.70;2.67;;;29.50;42.10;;;;;;5125405;27;20047;-71
2022/08/12 11:23:31;;;;;;;4.43;2.40;;;29.50;42.00;;;;;;5128995;27;20059;-72
2022/08/12 11:25:57;;;;;;;9.17;2.27;;;29.50;41.80;;;;;;5125637;27;20055;-70
2022/08/12 11:28:22;;;;;;;9.63;2.30;;;29.60;42.50;;;;;;5127619;27;20054;-72
2022/08/12 11:30:48;;;;;;;7.07;2.50;;;29.50;41.90;;;;;;5123440;27;20043;-72
2022/08/12 11:33:14;;;;;;;4.70;2.00;;;29.50;42.10;;;;;;5110682;27;20069;-72
2022/08/12 11:35:42;;;;;;;6.83;2.40;;;29.50;41.60;;;;;;5126105;27;20042;-72
2022/08/12 11:38:09;;;;;;;5.10;2.33;;;29.60;41.50;;;;;;5127573;27;20486;-72
2022/08/12 11:40:34;;;;;;;6.60;2.60;;;29.60;41.60;;;;;;5126165;27;20135;-71
2022/08/12 11:43:00;;;;;;;6.87;2.17;;;29.60;41.40;;;;;;5129083;27;20089;-71
2022/08/12 11:45:27;;;;;;;6.60;2.30;;;29.60;41.50;;;;;;5128828;27;20070;-72
2022/08/12 11:48:00;;;;;;;6.37;2.70;;;29.60;41.30;;;;;;5128796;27;20344;-72
2022/08/12 11:50:26;;;;;;;10.03;2.20;;;29.70;41.20;;;;;;5126011;27;20049;-73
2022/08/12 11:52:51;;;;;;;7.93;2.20;;;29.80;40.90;;;;;;5110478;27;20118;-72
2022/08/12 11:55:18;;;;;;;5.87;2.30;;;29.70;41.70;;;;;;5129236;27;20050;-72
2022/08/12 11:57:55;;;;;;;4.63;2.30;;;29.70;40.90;;;;;;5128492;27;20206;-70
2022/08/12 12:00:22;;;;;;;6.33;2.47;;;29.60;40.80;;;;;;5125892;27;20546;-73
2022/08/12 12:02:48;;;;;;;4.53;2.13;;;29.60;41.10;;;;;;5128343;27;20083;-69
2022/08/12 12:05:15;;;;;;;10.13;2.57;;;29.60;41.30;;;;;;5128554;27;20057;-70
2022/08/12 12:07:43;;;;;;;7.27;2.57;;;29.60;41.20;;;;;;5129007;27;20050;-70
2022/08/12 12:10:14;;;;;;;5.23;2.57;;;29.60;40.90;;;;;;5107359;27;20043;-69
2022/08/12 12:12:41;;;;;;;6.33;2.43;;;29.60;41.00;;;;;;5128397;27;20047;-69
2022/08/12 12:15:07;;;;;;;7.53;2.90;;;29.70;41.10;;;;;;5128169;27;20051;-71
2022/08/12 12:17:38;;;;;;;6.80;2.53;;;29.80;41.20;;;;;;5110413;27;20046;-72
2022/08/12 12:20:08;;;;;;;4.70;2.50;;;29.80;41.00;;;;;;5126191;27;20081;-70
2022/08/12 12:22:34;;;;;;;8.07;2.30;;;29.70;41.30;;;;;;5128005;27;20511;-70
2022/08/12 12:25:00;;;;;;;5.33;1.93;;;29.80;41.10;;;;;;5092257;27;20055;-69
2022/08/12 12:27:26;;;;;;;7.87;2.20;;;29.80;41.40;;;;;;5128321;27;20072;-71
2022/08/12 12:29:51;;;;;;;4.57;2.10;;;29.80;41.40;;;;;;5126258;27;20046;-70
2022/08/12 12:32:18;;;;;;;5.87;2.50;;;29.80;41.10;;;;;;5127662;27;20043;-69
2022/08/12 12:34:44;;;;;;;4.33;2.40;;;29.80;40.90;;;;;;5109733;28;20096;-71
2022/08/12 12:37:14;;;;;;;6.57;2.40;;;29.70;41.40;;;;;;5128250;27;20147;-71
2022/08/12 12:39:39;;;;;;;5.20;2.30;;;29.60;40.90;;;;;;5126389;27;20039;-71
2022/08/12 12:42:06;;;;;;;7.90;2.30;;;29.60;40.80;;;;;;5126756;27;20057;-69
2022/08/12 12:44:32;;;;;;;6.23;2.03;;;29.70;40.70;;;;;;5141075;27;20475;-70
2022/08/12 12:46:58;;;;;;;5.33;2.40;;;29.80;40.90;;;;;;5148733;27;20336;-70
2022/08/12 12:49:23;;;;;;;4.47;1.90;;;29.80;40.50;;;;;;5145991;27;20057;-70
2022/08/12 12:51:49;;;;;;;6.90;2.17;;;29.90;40.50;;;;;;5147686;27;20121;-70
2022/08/12 12:54:15;;;;;;;6.03;2.58;;;29.90;40.40;;;;;;5147985;27;20479;-72
2022/08/12 12:56:41;;;;;;;8.45;2.20;;;29.90;40.10;;;;;;5148578;27;20043;-70
2022/08/12 12:59:07;;;;;;;4.37;1.97;;;29.80;40.20;;;;;;5127286;27;20405;-69
2022/08/12 13:01:34;;;;;;;6.67;2.40;;;29.70;40.40;;;;;;5147308;27;20390;-71
2022/08/12 13:04:00;;;;;;;5.63;2.10;;;29.70;40.70;;;;;;5148541;27;20126;-71
2022/08/12 13:06:28;;;;;;;6.20;2.00;;;29.80;40.40;;;;;;5127022;27;20123;-69
2022/08/12 13:08:58;;;;;;;6.53;1.87;;;29.80;40.30;;;;;;5125793;27;20062;-69
2022/08/12 13:11:24;;;;;;;6.33;2.10;;;29.80;40.10;;;;;;5127001;27;20043;-68
2022/08/12 13:13:54;;;;;;;3.80;2.00;;;29.90;40.00;;;;;;5127874;27;20474;-70
2022/08/12 13:16:20;;;;;;;5.90;2.27;;;29.90;40.20;;;;;;5127876;28;20047;-69
2022/08/12 13:18:51;;;;;;;5.10;2.00;;;29.90;40.20;;;;;;5090722;27;20754;-69
2022/08/12 13:21:18;;;;;;;6.80;2.50;;;30.00;40.30;;;;;;5126671;27;20108;-70
2022/08/12 13:23:48;;;;;;;5.20;2.20;;;30.00;39.60;;;;;;5127173;27;20057;-69
2022/08/12 13:26:16;;;;;;;4.40;2.07;;;30.00;39.20;;;;;;5109055;28;20436;-71
2022/08/12 13:28:52;;;;;;;5.17;2.30;;;29.90;39.40;;;;;;5126391;27;20050;-69
2022/08/12 13:31:20;;;;;;;5.90;2.23;;;29.90;39.90;;;;;;5127349;27;20255;-69
2022/08/12 13:33:50;;;;;;;5.97;2.13;;;29.90;40.00;;;;;;5126349;28;20076;-69
2022/08/12 13:36:19;;;;;;;8.97;1.90;;;29.90;40.00;;;;;;5122047;28;20043;-68
2022/08/12 13:38:49;;;;;;;5.23;2.00;;;29.90;40.00;;;;;;5125413;27;20055;-69
2022/08/12 13:41:31;;;;;;;5.00;2.17;;;29.90;40.30;;;;;;5120909;27;20050;-70
2022/08/12 13:44:05;;;;;;;8.97;2.20;;;29.90;40.10;;;;;;5144494;27;20055;-69
2022/08/12 13:46:31;;;;;;;5.53;2.17;;;30.00;40.00;;;;;;5143392;27;20043;-70
2022/08/12 13:48:57;;;;;;;6.00;1.97;;;29.90;40.20;;;;;;5145687;27;20080;-72
2022/08/12 13:51:23;;;;;;;7.77;1.93;;;29.90;40.00;;;;;;5143041;27;20099;-69
2022/08/12 13:53:50;;;;;;;5.03;2.20;;;29.90;40.20;;;;;;5146968;27;20099;-69
2022/08/12 13:56:16;;;;;;;8.27;2.50;;;30.00;40.30;;;;;;5141859;27;20039;-70
2022/08/12 13:58:48;;;;;;;6.77;1.83;;;30.00;40.30;;;;;;5126954;27;20138;-72
2022/08/12 14:01:19;;;;;;;5.63;2.37;;;30.10;40.40;;;;;;5145339;27;20039;-72
2022/08/12 14:03:46;;;;;;;6.07;2.47;;;30.10;40.10;;;;;;5145446;27;20035;-69
2022/08/12 14:06:12;;;;;;;4.43;2.17;;;30.10;40.10;;;;;;5148907;27;20046;-71
2022/08/12 14:08:38;;;;;;;3.90;2.07;;;30.10;40.20;;;;;;5146095;27;20180;-69
2022/08/12 14:11:04;;;;;;;7.37;2.30;;;30.00;40.40;;;;;;5150557;27;20453;-71
2022/08/12 14:13:33;;;;;;;8.10;2.40;;;30.00;40.30;;;;;;5146967;27;20039;-69
2022/08/12 14:16:01;;;;;;;6.67;2.57;;;30.00;40.50;;;;;;5151064;27;20496;-69
2022/08/12 14:18:31;;;;;;;8.80;2.67;;;30.00;40.30;;;;;;5144556;27;20125;-72
2022/08/12 14:21:00;;;;;;;6.77;2.30;;;30.00;41.20;;;;;;5150432;27;20508;-70
2022/08/12 14:23:34;;;;;;;8.20;2.30;;;30.00;42.50;;;;;;5150984;27;20054;-70
2022/08/12 14:26:01;;;;;;;5.05;2.15;;;29.90;44.10;;;;;;5151897;27;20066;-68
2022/08/12 14:28:33;;;;;;;7.32;2.25;;;29.90;44.50;;;;;;5149142;27;20045;-70
2022/08/12 14:31:20;;;;;;;6.10;2.30;;;29.90;43.00;;;;;;5132222;27;20551;-69
2022/08/12 14:33:48;;;;;;;11.30;2.72;;;29.90;43.10;;;;;;5150919;27;20043;-70
2022/08/12 14:36:24;;;;;;;10.93;2.80;;;29.90;44.20;;;;;;5151349;27;20057;-69
2022/08/12 14:38:53;;;;;;;5.37;2.40;;;29.90;45.20;;;;;;5149410;27;20054;-69